createdAt,value
2022-08-03T00:01:32.851Z,21.07
2022-08-03T00:04:00.925Z,21.02
2022-08-03T00:06:33.763Z,20.94
2022-08-03T00:09:04.357Z,20.95
2022-08-03T00:11:32.032Z,20.97
2022-08-03T00:13:59.801Z,20.90
2022-08-03T00:16:27.403Z,20.91
2022-08-03T00:18:55.024Z,20.90
2022-08-03T00:21:22.616Z,20.85
2022-08-03T00:23:52.966Z,20.87
2022-08-03T00:26:20.721Z,20.79
2022-08-03T00:28:48.460Z,20.70
2022-08-03T00:31:16.083Z,20.67
2022-08-03T00:33:58.267Z,20.63
2022-08-03T00:36:28.112Z,20.57
2022-08-03T00:38:57.213Z,20.64
2022-08-03T00:41:24.900Z,20.61
2022-08-03T00:43:52.502Z,20.57
2022-08-03T00:46:22.164Z,20.43
2022-08-03T00:48:50.255Z,20.29
2022-08-03T00:51:19.015Z,20.22
2022-08-03T00:53:46.723Z,20.21
2022-08-03T00:56:16.293Z,20.20
2022-08-03T00:58:45.975Z,20.20
2022-08-03T01:01:14.541Z,20.14
2022-08-03T01:03:42.493Z,20.12
2022-08-03T01:06:19.200Z,20.11
2022-08-03T01:08:53.687Z,20.12
2022-08-03T01:11:33.225Z,20.09
2022-08-03T01:14:19.306Z,20.13
2022-08-03T01:16:56.814Z,20.17
2022-08-03T01:19:42.550Z,20.23
2022-08-03T01:22:24.241Z,20.30
2022-08-03T01:25:01.161Z,20.39
2022-08-03T01:27:43.476Z,20.29
2022-08-03T01:30:13.279Z,20.33
2022-08-03T01:32:53.304Z,20.38
2022-08-03T01:35:38.355Z,20.34
2022-08-03T01:38:10.988Z,20.40
2022-08-03T01:40:41.381Z,20.31
2022-08-03T01:43:11.635Z,20.30
2022-08-03T01:45:41.238Z,20.23
2022-08-03T01:48:10.218Z,20.18
2022-08-03T01:50:38.802Z,20.12
2022-08-03T01:53:07.789Z,20.11
2022-08-03T01:55:38.171Z,20.16
2022-08-03T01:58:07.845Z,20.11
2022-08-03T02:00:37.645Z,20.07
2022-08-03T02:03:08.322Z,20.00
2022-08-03T02:05:37.318Z,19.87
2022-08-03T02:08:06.421Z,19.72
2022-08-03T02:10:37.090Z,19.73
2022-08-03T02:13:08.227Z,19.69
2022-08-03T02:15:37.974Z,19.66
2022-08-03T02:18:09.636Z,19.65
2022-08-03T02:20:38.970Z,19.60
2022-08-03T02:23:07.401Z,19.53
2022-08-03T02:25:40.988Z,19.56
2022-08-03T02:28:12.203Z,19.62
2022-08-03T02:30:43.969Z,19.68
2022-08-03T02:33:19.105Z,19.78
2022-08-03T02:35:49.600Z,19.83
2022-08-03T02:38:21.386Z,19.86
2022-08-03T02:40:52.081Z,19.93
2022-08-03T02:43:22.622Z,19.89
2022-08-03T02:45:52.463Z,19.92
2022-08-03T02:48:25.842Z,19.87
2022-08-03T02:50:55.126Z,19.93
2022-08-03T02:53:24.710Z,19.89
2022-08-03T02:55:54.566Z,19.79
2022-08-03T02:58:24.745Z,19.72
2022-08-03T03:00:54.723Z,19.74
2022-08-03T03:03:25.582Z,19.73
2022-08-03T03:05:57.436Z,19.71
2022-08-03T03:08:28.621Z,19.62
2022-08-03T03:10:58.013Z,19.58
2022-08-03T03:13:26.333Z,19.64
2022-08-03T03:15:55.772Z,19.73
2022-08-03T03:18:26.140Z,19.79
2022-08-03T03:20:54.921Z,19.85
2022-08-03T03:23:24.288Z,19.88
2022-08-03T03:25:53.304Z,19.96
2022-08-03T03:28:21.083Z,19.93
2022-08-03T03:30:52.572Z,19.95
2022-08-03T03:33:21.085Z,19.96
2022-08-03T03:35:51.586Z,19.96
2022-08-03T03:38:19.548Z,19.93
2022-08-03T03:40:47.802Z,19.94
2022-08-03T03:43:15.620Z,19.90
2022-08-03T03:45:43.416Z,19.95
2022-08-03T03:48:11.417Z,19.95
2022-08-03T03:50:40.947Z,19.87
2022-08-03T03:53:14.867Z,19.89
2022-08-03T03:55:59.471Z,19.93
2022-08-03T03:58:32.200Z,20.00
2022-08-03T04:01:00.331Z,19.98
2022-08-03T04:03:28.206Z,19.97
2022-08-03T04:06:13.432Z,19.92
2022-08-03T04:09:00.146Z,19.78
2022-08-03T04:11:31.882Z,19.66
2022-08-03T04:14:04.256Z,19.49
2022-08-03T04:16:36.851Z,19.35
2022-08-03T04:19:11.505Z,19.18
2022-08-03T04:21:42.507Z,19.20
2022-08-03T04:24:14.519Z,19.18
2022-08-03T04:26:49.620Z,19.17
2022-08-03T04:29:21.733Z,19.07
2022-08-03T04:31:50.557Z,19.03
2022-08-03T04:34:18.631Z,18.96
2022-08-03T04:36:50.531Z,18.93
2022-08-03T04:39:26.426Z,19.09
2022-08-03T04:42:07.177Z,19.08
2022-08-03T04:44:45.808Z,19.13
2022-08-03T04:47:13.666Z,19.24
2022-08-03T04:49:41.806Z,19.25
2022-08-03T04:52:10.009Z,19.29
2022-08-03T04:54:42.730Z,19.26
2022-08-03T04:57:18.096Z,19.26
2022-08-03T05:00:01.021Z,19.33
2022-08-03T05:02:30.823Z,19.31
2022-08-03T05:04:59.348Z,19.36
2022-08-03T05:07:35.370Z,19.40
2022-08-03T05:10:16.039Z,19.55
2022-08-03T05:12:45.507Z,19.59
2022-08-03T05:15:13.525Z,19.65
2022-08-03T05:17:41.434Z,19.74
2022-08-03T05:20:10.525Z,19.80
2022-08-03T05:22:38.164Z,19.88
2022-08-03T05:25:07.983Z,20.06
2022-08-03T05:27:36.064Z,20.17
2022-08-03T05:30:31.049Z,20.25
2022-08-03T05:32:53.329Z,20.28
2022-08-03T05:35:56.195Z,20.27
2022-08-03T05:38:09.181Z,20.29
2022-08-03T05:40:38.466Z,20.30
2022-08-03T05:43:07.304Z,20.37
2022-08-03T05:45:35.026Z,20.40
2022-08-03T05:48:02.659Z,20.41
2022-08-03T05:50:30.331Z,20.41
2022-08-03T05:52:58.793Z,20.42
2022-08-03T05:55:26.521Z,20.44
2022-08-03T05:57:56.838Z,20.48
2022-08-03T06:00:25.761Z,20.51
2022-08-03T06:02:53.486Z,20.54
2022-08-03T06:05:21.332Z,20.62
2022-08-03T06:07:48.939Z,20.70
2022-08-03T06:10:37.577Z,20.76
2022-08-03T06:13:05.805Z,20.86
2022-08-03T06:15:35.361Z,20.94
2022-08-03T06:18:03.058Z,21.03
2022-08-03T06:20:31.230Z,21.14
2022-08-03T06:23:00.502Z,21.23
2022-08-03T06:25:29.279Z,21.37
2022-08-03T06:27:57.024Z,21.48
2022-08-03T06:30:26.066Z,21.55
2022-08-03T06:32:53.707Z,21.67
2022-08-03T06:35:21.887Z,21.75
2022-08-03T06:37:51.661Z,21.84
2022-08-03T06:40:24.552Z,21.91
2022-08-03T06:42:52.428Z,22.02
2022-08-03T06:45:20.192Z,22.13
2022-08-03T06:47:49.264Z,22.25
2022-08-03T06:50:19.015Z,22.36
2022-08-03T06:52:48.564Z,22.48
2022-08-03T06:55:16.337Z,22.59
2022-08-03T06:57:44.288Z,22.70
2022-08-03T07:00:13.055Z,22.82
2022-08-03T07:02:40.961Z,22.97
2022-08-03T07:05:11.573Z,23.10
2022-08-03T07:07:39.475Z,23.24
2022-08-03T07:10:08.529Z,23.33
2022-08-03T07:12:36.999Z,23.42
2022-08-03T07:15:54.656Z,23.51
2022-08-03T07:18:08.732Z,23.58
2022-08-03T07:20:37.731Z,23.68
2022-08-03T07:23:05.355Z,23.78
2022-08-03T07:25:33.142Z,23.88
2022-08-03T07:28:00.786Z,23.98
2022-08-03T07:30:28.793Z,24.13
2022-08-03T07:32:56.497Z,24.24
2022-08-03T07:35:25.229Z,24.35
2022-08-03T07:37:55.218Z,24.45
2022-08-03T07:40:23.703Z,24.59
2022-08-03T07:42:55.845Z,24.72
2022-08-03T07:45:24.186Z,24.82
2022-08-03T07:47:53.138Z,25.01
2022-08-03T07:50:22.006Z,25.18
2022-08-03T07:52:50.653Z,25.28
2022-08-03T07:55:21.113Z,25.39
2022-08-03T07:57:48.850Z,25.46
2022-08-03T08:00:18.708Z,25.62
2022-08-03T08:02:46.747Z,25.69
2022-08-03T08:05:14.411Z,25.83
2022-08-03T08:07:42.167Z,25.97
2022-08-03T08:10:10.932Z,26.17
2022-08-03T08:12:40.729Z,26.35
2022-08-03T08:15:09.629Z,26.48
2022-08-03T08:17:45.208Z,26.59
2022-08-03T08:20:16.325Z,26.80
2022-08-03T08:22:51.777Z,26.96
2022-08-03T08:25:20.162Z,27.05
2022-08-03T08:28:29.190Z,27.22
2022-08-03T08:30:37.936Z,27.38
2022-08-03T08:33:05.545Z,27.47
2022-08-03T08:35:33.202Z,27.66
2022-08-03T08:38:05.696Z,27.88
2022-08-03T08:40:33.837Z,28.04
2022-08-03T08:43:03.308Z,28.15
2022-08-03T08:45:31.112Z,28.28
2022-08-03T08:48:05.408Z,28.53
2022-08-03T08:50:38.210Z,28.65
2022-08-03T08:53:09.804Z,28.78
2022-08-03T08:55:56.878Z,28.92
2022-08-03T08:58:31.168Z,29.06
2022-08-03T09:00:58.958Z,29.19
2022-08-03T09:03:30.230Z,29.28
2022-08-03T09:06:01.369Z,29.45
2022-08-03T09:08:30.718Z,29.47
2022-08-03T09:10:58.522Z,29.56
2022-08-03T09:13:26.342Z,29.63
2022-08-03T09:16:14.425Z,29.74
2022-08-03T09:18:43.260Z,29.81
2022-08-03T09:21:30.544Z,29.87
2022-08-03T09:24:03.764Z,29.90
2022-08-03T09:26:34.219Z,30.00
2022-08-03T09:29:09.356Z,30.02
2022-08-03T09:31:43.164Z,30.16
2022-08-03T09:34:12.975Z,30.30
2022-08-03T09:36:42.902Z,30.37
2022-08-03T09:39:12.317Z,30.45
2022-08-03T09:41:41.867Z,30.57
2022-08-03T09:44:24.442Z,30.64
2022-08-03T09:46:57.133Z,30.67
2022-08-03T09:49:25.815Z,30.73
2022-08-03T09:52:32.007Z,30.86
2022-08-03T09:54:42.712Z,30.97
2022-08-03T09:57:21.800Z,31.13
2022-08-03T09:59:49.857Z,31.24
2022-08-03T10:02:27.062Z,31.36
2022-08-03T10:04:55.452Z,31.32
2022-08-03T10:07:24.930Z,31.39
2022-08-03T10:09:58.100Z,31.58
2022-08-03T10:12:48.039Z,31.75
2022-08-03T10:16:20.267Z,31.95
2022-08-03T10:18:05.595Z,32.09
2022-08-03T10:20:37.502Z,32.29
2022-08-03T10:23:06.208Z,32.33
2022-08-03T10:25:36.841Z,32.51
2022-08-03T10:28:05.792Z,32.31
2022-08-03T10:30:34.316Z,32.27
2022-08-03T10:33:49.150Z,32.51
2022-08-03T10:36:00.730Z,32.62
2022-08-03T10:38:33.677Z,32.70
2022-08-03T10:41:02.369Z,32.81
2022-08-03T10:43:37.221Z,32.92
2022-08-03T10:46:07.794Z,33.02
2022-08-03T10:48:37.748Z,33.09
2022-08-03T10:51:07.469Z,33.20
2022-08-03T10:53:36.692Z,33.37
2022-08-03T10:56:41.572Z,33.32
2022-08-03T10:59:10.904Z,33.22
2022-08-03T11:01:59.894Z,33.06
2022-08-03T11:04:30.870Z,33.12
2022-08-03T11:07:22.098Z,33.23
2022-08-03T11:09:51.643Z,33.49
2022-08-03T11:12:30.333Z,33.63
2022-08-03T11:15:01.408Z,33.91
2022-08-03T11:17:29.274Z,34.22
2022-08-03T11:19:58.685Z,34.53
2022-08-03T11:22:47.046Z,34.83
2022-08-03T11:25:54.230Z,34.91
2022-08-03T11:28:29.444Z,34.85
2022-08-03T11:31:32.757Z,34.39
2022-08-03T11:34:10.723Z,34.47
2022-08-03T11:37:21.329Z,34.93
2022-08-03T11:39:54.486Z,35.41
2022-08-03T11:42:50.504Z,35.64
2022-08-03T11:45:19.815Z,35.62
2022-08-03T11:47:51.466Z,35.43
2022-08-03T11:50:21.078Z,35.51
2022-08-03T11:52:49.733Z,34.94
2022-08-03T11:55:21.874Z,35.01
2022-08-03T11:59:02.757Z,35.49
2022-08-03T12:00:38.661Z,36.04
2022-08-03T12:03:08.819Z,36.48
2022-08-03T12:05:52.140Z,36.76
2022-08-03T12:08:32.883Z,37.01
2022-08-03T12:11:05.586Z,37.16
2022-08-03T12:14:45.121Z,37.42
2022-08-03T12:16:28.584Z,37.68
2022-08-03T12:18:57.456Z,37.61
2022-08-03T12:21:25.243Z,38.08
2022-08-03T12:23:58.920Z,38.40
2022-08-03T12:26:28.765Z,38.49
2022-08-03T12:28:56.447Z,39.00
2022-08-03T12:31:24.792Z,39.37
2022-08-03T12:33:58.844Z,39.85
2022-08-03T12:36:27.636Z,40.30
2022-08-03T12:38:57.706Z,40.79
2022-08-03T12:41:31.696Z,41.17
2022-08-03T12:43:59.616Z,41.38
2022-08-03T12:46:32.271Z,41.60
2022-08-03T12:49:06.573Z,41.94
2022-08-03T12:51:36.886Z,42.09
2022-08-03T12:54:05.442Z,42.11
2022-08-03T12:56:34.945Z,42.32
2022-08-03T12:59:18.085Z,42.59
2022-08-03T13:01:55.305Z,43.20
2022-08-03T13:04:28.149Z,43.68
2022-08-03T13:07:02.984Z,44.19
2022-08-03T13:09:33.062Z,44.68
2022-08-03T13:12:09.640Z,45.46
2022-08-03T13:14:37.536Z,45.47
2022-08-03T13:17:06.251Z,46.08
2022-08-03T13:19:34.134Z,46.63
2022-08-03T13:22:04.050Z,47.10
2022-08-03T13:24:33.452Z,47.32
2022-08-03T13:28:01.270Z,47.26
2022-08-03T13:29:52.850Z,47.56
2022-08-03T13:32:21.706Z,46.87
2022-08-03T13:34:49.665Z,47.24
2022-08-03T13:37:17.393Z,47.10
2022-08-03T13:39:57.562Z,45.68
2022-08-03T13:42:28.824Z,45.53
2022-08-03T13:44:58.086Z,46.15
2022-08-03T13:47:25.978Z,46.68
2022-08-03T13:49:55.828Z,47.22
2022-08-03T13:52:30.374Z,47.56
2022-08-03T13:54:58.445Z,47.26
2022-08-03T13:58:02.918Z,47.36
2022-08-03T14:00:27.640Z,46.89
2022-08-03T14:03:09.552Z,46.10
2022-08-03T14:05:41.089Z,45.44
2022-08-03T14:08:09.482Z,45.89
2022-08-03T14:10:39.661Z,46.42
2022-08-03T14:13:07.375Z,47.00
2022-08-03T14:15:38.306Z,47.75
2022-08-03T14:18:07.112Z,47.88
2022-08-03T14:20:37.735Z,48.54
2022-08-03T14:23:08.620Z,49.60
2022-08-03T14:25:43.604Z,50.70
2022-08-03T14:28:18.691Z,51.13
2022-08-03T14:30:48.462Z,52.06
2022-08-03T14:33:16.370Z,52.35
2022-08-03T14:35:43.988Z,51.61
2022-08-03T14:38:11.773Z,52.11
2022-08-03T14:40:39.493Z,52.32
2022-08-03T14:43:07.157Z,51.76
2022-08-03T14:45:34.924Z,52.81
2022-08-03T14:50:34.124Z,53.48
2022-08-03T14:50:55.013Z,53.14
2022-08-03T14:53:23.393Z,52.20
2022-08-03T14:55:52.778Z,52.00
2022-08-03T14:58:21.823Z,52.36
2022-08-03T15:00:50.729Z,52.55
2022-08-03T15:03:22.967Z,53.07
2022-08-03T15:05:50.952Z,52.08
2022-08-03T15:08:18.654Z,52.05
2022-08-03T15:10:46.378Z,52.65
2022-08-03T15:13:17.076Z,53.19
2022-08-03T15:15:44.814Z,54.31
2022-08-03T15:18:12.736Z,54.38
2022-08-03T15:20:45.296Z,53.58
2022-08-03T15:23:14.290Z,51.97
2022-08-03T15:26:28.461Z,52.42
2022-08-03T15:28:29.981Z,51.99
2022-08-03T15:30:58.095Z,53.01
2022-08-03T15:33:25.808Z,51.98
2022-08-03T15:35:54.880Z,52.15
2022-08-03T15:38:26.246Z,51.75
2022-08-03T15:40:55.298Z,49.44
2022-08-03T15:43:23.691Z,48.95
2022-08-03T15:46:19.022Z,50.09
2022-08-03T15:48:39.348Z,49.79
2022-08-03T15:51:09.124Z,51.39
2022-08-03T15:53:37.182Z,51.97
2022-08-03T15:56:11.419Z,52.77
2022-08-03T15:59:11.278Z,52.33
2022-08-03T16:01:30.044Z,51.64
2022-08-03T16:03:58.038Z,52.52
2022-08-03T16:06:29.558Z,53.61
2022-08-03T16:09:03.481Z,54.50
2022-08-03T16:11:31.365Z,55.13
2022-08-03T16:14:13.821Z,55.46
2022-08-03T16:16:46.824Z,55.89
2022-08-03T16:19:14.594Z,56.08
2022-08-03T16:21:48.532Z,56.58
2022-08-03T16:24:17.500Z,55.71
2022-08-03T16:26:49.561Z,56.47
2022-08-03T16:29:22.629Z,56.78
2022-08-03T16:31:52.143Z,56.56
2022-08-03T16:34:20.134Z,57.06
2022-08-03T16:36:49.206Z,56.82
2022-08-03T16:39:16.939Z,56.89
2022-08-03T16:41:54.455Z,56.46
2022-08-03T16:44:30.377Z,55.87
2022-08-03T16:46:58.169Z,56.19
2022-08-03T16:49:53.762Z,56.11
2022-08-03T16:52:16.480Z,56.18
2022-08-03T16:54:52.543Z,56.90
2022-08-03T16:57:59.069Z,56.74
2022-08-03T17:00:11.505Z,56.67
2022-08-03T17:02:48.289Z,56.63
2022-08-03T17:05:16.186Z,57.01
2022-08-03T17:07:50.735Z,56.93
2022-08-03T17:10:27.028Z,56.75
2022-08-03T17:12:55.366Z,56.33
2022-08-03T17:15:38.137Z,56.42
2022-08-03T17:18:17.627Z,55.41
2022-08-03T17:20:47.934Z,55.49
2022-08-03T17:23:34.300Z,55.95
2022-08-03T17:26:10.604Z,55.85
2022-08-03T17:28:52.113Z,55.92
2022-08-03T17:31:31.142Z,55.60
2022-08-03T17:34:02.058Z,55.68
2022-08-03T17:37:02.167Z,55.77
2022-08-03T17:39:41.655Z,55.38
2022-08-03T17:42:30.520Z,54.83
2022-08-03T17:45:02.057Z,54.54
2022-08-03T17:47:42.799Z,54.37
2022-08-03T17:50:23.959Z,54.16
2022-08-03T17:52:59.061Z,53.45
2022-08-03T17:55:54.993Z,53.11
2022-08-03T17:58:26.477Z,52.63
2022-08-03T18:01:58.490Z,52.30
2022-08-03T18:04:10.755Z,51.87
2022-08-03T18:06:56.080Z,51.78
2022-08-03T18:10:04.046Z,51.37
2022-08-03T18:12:25.904Z,50.84
2022-08-03T18:15:01.133Z,50.35
2022-08-03T18:20:34.503Z,48.96
2022-08-03T18:23:09.591Z,48.27
2022-08-03T18:25:45.292Z,47.31
2022-08-03T18:28:23.097Z,46.11
2022-08-03T18:30:54.101Z,44.70
2022-08-03T18:34:16.660Z,43.22
2022-08-03T18:36:18.038Z,41.72
2022-08-03T18:38:47.371Z,40.46
2022-08-03T18:41:20.704Z,39.60
2022-08-03T18:44:08.886Z,38.82
2022-08-03T18:46:48.444Z,38.08
2022-08-03T18:49:29.180Z,37.57
2022-08-03T18:52:03.749Z,36.96
2022-08-03T18:57:37.939Z,35.92
2022-08-03T19:00:14.199Z,35.49
2022-08-03T19:02:48.922Z,35.06
2022-08-03T19:05:20.417Z,34.62
2022-08-03T19:07:59.617Z,34.28
2022-08-03T19:10:57.845Z,33.90
2022-08-03T19:13:36.138Z,33.44
2022-08-03T19:16:10.736Z,33.00
2022-08-03T19:18:41.642Z,32.64
2022-08-03T19:21:12.784Z,32.31
2022-08-03T19:23:45.488Z,32.09
2022-08-03T19:26:31.004Z,31.89
2022-08-03T19:28:59.759Z,31.64
2022-08-03T19:31:31.200Z,31.37
2022-08-03T19:34:04.007Z,31.30
2022-08-03T19:36:34.257Z,31.14
2022-08-03T19:39:09.195Z,31.02
2022-08-03T19:41:42.240Z,30.87
2022-08-03T19:44:12.220Z,30.78
2022-08-03T19:46:47.645Z,30.61
2022-08-03T19:49:17.299Z,30.37
2022-08-03T19:52:01.961Z,30.19
2022-08-03T19:54:39.685Z,30.02
2022-08-03T19:57:24.164Z,29.78
2022-08-03T19:59:54.201Z,29.68
2022-08-03T20:02:25.750Z,29.54
2022-08-03T20:05:14.899Z,29.41
2022-08-03T20:10:33.268Z,29.10
2022-08-03T20:13:02.485Z,28.96
2022-08-03T20:15:32.085Z,28.86
2022-08-03T20:18:01.138Z,28.80
2022-08-03T20:20:31.213Z,28.68
2022-08-03T20:23:00.909Z,28.60
2022-08-03T20:25:38.125Z,28.51
2022-08-03T20:30:58.014Z,28.33
2022-08-03T20:33:46.121Z,28.22
2022-08-03T20:36:17.838Z,28.12
2022-08-03T20:38:47.212Z,27.99
2022-08-03T20:41:15.439Z,27.91
2022-08-03T20:43:43.206Z,27.82
2022-08-03T20:49:00.495Z,27.49
2022-08-03T20:51:49.179Z,27.28
2022-08-03T20:54:28.989Z,27.10
2022-08-03T20:57:10.157Z,27.01
2022-08-03T21:05:14.905Z,26.81
2022-08-03T21:08:06.367Z,26.77
2022-08-03T21:10:41.957Z,26.74
2022-08-03T21:13:03.562Z,29.28
2022-08-03T21:13:04.674Z,49.88
2022-08-03T21:13:06.981Z,28.39
2022-08-03T21:13:07.420Z,27.72
2022-08-03T21:13:07.829Z,26.93
2022-08-03T21:13:11.154Z,36.47
2022-08-03T21:13:12.823Z,26.86
2022-08-03T21:13:18.556Z,26.66
2022-08-03T21:16:11.354Z,26.62
2022-08-03T21:18:42.927Z,26.55
2022-08-03T21:21:15.762Z,26.51
2022-08-03T21:23:48.996Z,26.44
2022-08-03T21:26:18.499Z,26.35
2022-08-03T21:28:47.570Z,26.23
2022-08-03T21:31:24.514Z,26.20
2022-08-03T21:33:56.245Z,26.15
2022-08-03T21:36:26.732Z,26.14
2022-08-03T21:38:56.885Z,26.10
2022-08-03T21:41:25.910Z,26.07
2022-08-03T21:43:53.607Z,26.02
2022-08-03T21:46:22.605Z,25.98
2022-08-03T21:48:55.873Z,25.95
2022-08-03T21:51:26.448Z,25.93
2022-08-03T21:54:04.314Z,25.79
2022-08-03T21:56:36.936Z,25.79
2022-08-03T21:59:07.592Z,25.75
2022-08-03T22:01:37.229Z,25.68
2022-08-03T22:04:07.101Z,25.64
2022-08-03T22:06:36.176Z,25.59
2022-08-03T22:09:07.162Z,25.51
2022-08-03T22:11:35.772Z,25.47
2022-08-03T22:14:03.765Z,25.41
2022-08-03T22:16:31.554Z,25.36
2022-08-03T22:18:59.290Z,25.33
2022-08-03T22:21:36.408Z,25.30
2022-08-03T22:24:07.329Z,25.30
2022-08-03T22:26:36.670Z,25.27
2022-08-03T22:29:08.149Z,25.27
2022-08-03T22:31:57.459Z,25.24
2022-08-03T22:34:27.379Z,25.18
2022-08-03T22:37:00.335Z,25.16
2022-08-03T22:39:30.878Z,25.12
2022-08-03T22:41:59.544Z,25.15
2022-08-03T22:44:28.082Z,25.09
2022-08-03T22:46:56.544Z,25.07
2022-08-03T22:49:25.292Z,25.02
2022-08-03T22:51:54.399Z,24.99
2022-08-03T22:54:24.815Z,24.94
2022-08-03T22:56:53.769Z,24.87
2022-08-03T22:59:39.168Z,24.85
2022-08-03T23:02:15.116Z,24.84
2022-08-03T23:04:52.557Z,24.80
2022-08-03T23:07:28.741Z,24.73
2022-08-03T23:09:58.611Z,24.64
2022-08-03T23:12:29.418Z,24.59
2022-08-03T23:15:01.153Z,24.51
2022-08-03T23:17:31.912Z,24.46
2022-08-03T23:20:04.636Z,24.43
2022-08-03T23:22:34.894Z,24.36
2022-08-03T23:25:03.762Z,24.36
2022-08-03T23:27:33.433Z,24.35
2022-08-03T23:30:02.601Z,24.35
2022-08-03T23:32:31.810Z,24.38
2022-08-03T23:35:19.340Z,24.38
2022-08-03T23:38:03.948Z,24.32
2022-08-03T23:40:37.826Z,24.30
2022-08-03T23:43:07.972Z,24.27
2022-08-03T23:45:45.341Z,24.21
2022-08-03T23:48:13.516Z,24.16
2022-08-03T23:50:46.555Z,24.13
2022-08-03T23:53:19.089Z,24.01
2022-08-03T23:55:59.548Z,23.94
2022-08-03T23:58:43.693Z,23.89
